To NAV CANADA Home Page Login to a new session Search on AWWS site Disclaimer Vers la page française équivalente Tips FAQ What's new on the site To the Forecasts and Observations / NOTAM section To "File a Flight Plan" website Publications and other links Update of the User's profile FIC Telephone Numbers My Weather Data Folder Route Weather Data Regional Weather Data Local Weather Data To the Forecasts and Observations / NOTAM section
Request Generated 06/14/2021 at 19:03:29 UTC . Weather information available at that time is displayed.


Go to a specific product

Save this request

NOTAM

NOTAM


SIGMET
To the Product Selector

SIGMETS GFACN32

WSCN32 CWEG 141344
SIGMET L6 VALID 141340/141705 CWEG-
CZEG EDMONTON FIR CNCL SIGMET L5 141305/141705
RMK GFACN32
END/WSCN22/CWAO

WSCN32 CWEG 141754
SIGMET P4 VALID 141750/142105 CWEG-
CZEG EDMONTON FIR CNCL SIGMET P3 141705/142105
RMK GFACN32
END/WSCN22/CWAO



AIRMET
To the Product Selector

AIRMETS GFACN32

WACN32 CWEG 141832
AIRMET C1 VALID 141830/142230 CWEG-
CZEG EDMONTON FIR ISOLD TS OBS WTN 90 NM OF LINE /N6000 W12009/90 N CYOP -
/N6336 W11510/45 SW CYWE TOP FL320 QS INTSFYG
RMK GFACN32 GFACN35
END/WACN22/CWAO

WACN32 CWEG 141730
AIRMET H2 VALID 141730/141825 CWEG-
CZEG EDMONTON FIR CNCL AIRMET H1 141425/141825
RMK GFACN32
END/WACN22/CWAO

WACN32 CWEG 141730
AIRMET I3 VALID 141730/142005 CWEG-
CZEG EDMONTON FIR CNCL AIRMET I2 141605/142005
RMK GFACN32
END/WACN22/CWAO



PIREP
To the Product Selector

FIR_WINNIPEG (WG)

WG - PIREP not available



METAR/TAF
To the Product Selector

REGINA INTL/SK    

METAR CYQR 141900Z 15019G24KT 15SM FEW070 FEW270 28/10 A3012 RMK CU1CI1 CU TR CI TR PRESFR SLP201 DENSITY ALT 3600FT=
METAR CYQR 141800Z 14016G21KT 15SM FEW068 FEW270 27/11 A3015 RMK CU1CI1 CU TR CI TR SLP211 DENSITY ALT 3500FT=
METAR CYQR 141700Z 14014G22KT 15SM FEW065 FEW120 26/10 A3015 RMK CU1AC1 CU TR AC TR SLP213 DENSITY ALT 3400FT=

TAF CYQR 141738Z 1418/1518 14015G25KT P6SM SKC
FM151400 14022G32KT P6SM SCT180
RMK NXT FCST BY 150000Z=

MOOSE JAW/AIR VICE MARSHAL C.M. MCEWEN/SK    

METAR CYMJ 141900Z 15018G27KT 15SM FEW070 FEW120 FEW260 28/10 A3008 RMK CU1AC1CI1 SLP183=
METAR CYMJ 141800Z 15016G24KT 15SM FEW070 FEW260 28/10 A3010 RMK CU1CI2 SLP190=
METAR CYMJ 141700Z 13016G22KT 15SM FEW070 FEW260 27/10 A3012 RMK AC1CI1 SLP196=

TAF CYMJ 141730Z 1418/1506 13015G25KT P6SM FEW070 SCT260
BECMG 1422/1424 14020G30KT
BECMG 1503/1505 14015G25KT
RMK NXT FCST BY 150000Z=


RADAR PCPN RATE
To the Product Selector
Pacific Canada      Western Canada     

SATELLITE VISIBLE
To the Product Selector
West Canada      

SATELLITE INFRARED
To the Product Selector
West Canada     

GRAPHICAL FA CLOUDS & WEATHER FORECASTS
To the Product Selector
Graphical FA gfacn32      

GRAPHICAL FA ICING, TURBULENCE & FREEZING LEVEL FORECASTS
To the Product Selector
Graphical FA gfacn32      

FDTEXT Low Level FD. Temperatures are not forecast for the 3,000-foot level.
To the Product Selector
STN YQR - REGINA. SASK for use 3000 6000 9000 12000 18000
FDCN01 CWAO FCST BASED ON 141200 DATA VALID 141800 17-21 1516+17 9900+12 3309+08 3111-07
FDCN02 CWAO FCST BASED ON 141200 DATA VALID 150000 21-06 1521+18 1706+14 9900+09 2811-07
FDCN03 CWAO FCST BASED ON 141200 DATA VALID 151200 06-17 1730+20 1425+16 1514+09 2410-07



Your time UTC time
Weather data provided by Environment Canada and NAV CANADA